Time;durP1;ratioP1;P1;durP2;ratioP2;P2;SDS_P1;SDS_P2;PMS_P1;PMS_P2;Temp;Humidity;BMP_temperature;BMP_pressure;BME280_temperature;BME280_humidity;BME280_pressure;Samples;Min_cycle;Max_cycle;Signal;HPM_P1;HPM_P2
2021/07/31 00:01:41;;;;;;;16.23;8.48;;;;;;;23.37;65.42;100546.17;1859923;77;25757;-60
2021/07/31 00:04:07;;;;;;;17.20;8.78;;;;;;;23.36;65.49;100543.94;1860094;77;25753;-61
2021/07/31 00:06:34;;;;;;;19.50;7.87;;;;;;;23.34;65.35;100546.61;1824156;77;25614;-60
2021/07/31 00:09:01;;;;;;;17.87;8.25;;;;;;;23.33;65.25;100548.53;1820047;77;27436;-60
2021/07/31 00:11:28;;;;;;;15.85;8.70;;;;;;;23.33;65.37;100548.53;1816119;79;25773;-60
2021/07/31 00:13:55;;;;;;;16.62;8.68;;;;;;;23.33;65.21;100555.39;1816319;78;25729;-61
2021/07/31 00:16:22;;;;;;;12.30;7.85;;;;;;;23.34;65.07;100557.08;1840646;77;25780;-61
2021/07/31 00:18:49;;;;;;;17.35;7.87;;;;;;;23.37;65.07;100566.76;1842796;77;25872;-60
2021/07/31 00:21:16;;;;;;;13.95;8.08;;;;;;;23.37;65.34;100564.84;1835709;77;27469;-60
2021/07/31 00:23:42;;;;;;;15.28;8.40;;;;;;;23.38;65.12;100571.19;1844023;77;25806;-60
2021/07/31 00:26:09;;;;;;;16.82;8.25;;;;;;;23.39;65.03;100566.00;1856452;77;25737;-61
2021/07/31 00:28:36;;;;;;;12.03;6.70;;;;;;;23.40;65.11;100563.02;1856523;77;25803;-59
2021/07/31 00:31:04;;;;;;;12.80;7.22;;;;;;;23.43;65.84;100561.20;1839944;77;25702;-59
2021/07/31 00:33:31;;;;;;;11.80;7.37;;;;;;;23.36;65.96;100562.33;1816116;79;28146;-59
2021/07/31 00:35:59;;;;;;;16.73;7.47;;;;;;;23.31;66.13;100571.79;1816005;79;43021;-60
2021/07/31 00:38:26;;;;;;;12.35;7.30;;;;;;;23.23;66.66;100566.05;1816168;79;25694;-60
2021/07/31 00:40:53;;;;;;;20.27;8.38;;;;;;;23.20;66.15;100565.97;1816192;79;26482;-59
2021/07/31 00:43:20;;;;;;;29.35;19.27;;;;;;;23.21;66.34;100566.28;1816153;79;25695;-59
2021/07/31 00:45:47;;;;;;;20.10;7.95;;;;;;;23.21;66.12;100559.42;1852879;77;27475;-59
2021/07/31 00:48:15;;;;;;;14.90;7.53;;;;;;;23.25;66.19;100563.92;1829193;77;25759;-59
2021/07/31 00:50:42;;;;;;;21.85;7.80;;;;;;;23.29;65.85;100555.53;1816220;79;25762;-59
2021/07/31 00:53:09;;;;;;;16.70;8.65;;;;;;;23.28;65.84;100550.58;1820244;77;25804;-59
2021/07/31 00:55:37;;;;;;;16.42;8.43;;;;;;;23.29;65.44;100546.78;1822889;78;25411;-60
2021/07/31 00:58:07;;;;;;;19.77;8.90;;;;;;;23.29;65.29;100545.92;1823159;77;27401;-59
2021/07/31 01:00:39;;;;;;;16.17;8.68;;;;;;;23.26;65.08;100541.73;1825017;77;25806;-59
2021/07/31 01:03:07;;;;;;;11.35;7.97;;;;;;;23.25;64.89;100541.97;1856713;77;25757;-59
2021/07/31 01:05:36;;;;;;;14.83;7.80;;;;;;;23.25;64.92;100544.16;1853276;77;26745;-59
2021/07/31 01:08:04;;;;;;;17.55;7.87;;;;;;;23.28;64.84;100542.87;1856561;77;25785;-60
2021/07/31 01:10:33;;;;;;;10.10;7.10;;;;;;;23.28;64.75;100540.12;1857137;77;28041;-59
2021/07/31 01:13:02;;;;;;;13.35;7.58;;;;;;;23.24;64.67;100541.66;1856295;77;25880;-59
2021/07/31 01:15:31;;;;;;;16.90;7.95;;;;;;;23.17;64.64;100543.05;1830170;77;25464;-59
2021/07/31 01:17:58;;;;;;;17.00;7.70;;;;;;;23.04;65.74;100538.53;1811142;79;25738;-59
2021/07/31 01:20:25;;;;;;;21.50;9.15;;;;;;;22.93;65.29;100532.40;1846429;77;25472;-59
2021/07/31 01:22:54;;;;;;;20.20;8.35;;;;;;;22.88;65.51;100536.36;1821808;78;27474;-59
2021/07/31 01:25:21;;;;;;;19.65;8.50;;;;;;;22.83;65.63;100532.91;1823003;77;25734;-60
2021/07/31 01:27:48;;;;;;;19.60;8.55;;;;;;;22.83;65.76;100532.37;1822957;78;25461;-59
2021/07/31 01:30:16;;;;;;;21.15;8.73;;;;;;;22.83;65.78;100532.91;1823395;77;25730;-59
2021/07/31 01:32:45;;;;;;;21.07;8.88;;;;;;;22.81;65.59;100532.29;1823009;77;25664;-59
2021/07/31 01:35:13;;;;;;;13.30;7.60;;;;;;;22.80;65.67;100530.61;1851343;77;27562;-59
2021/07/31 01:37:41;;;;;;;18.60;8.63;;;;;;;22.79;65.68;100533.89;1856526;77;25763;-59
2021/07/31 01:40:10;;;;;;;23.15;8.85;;;;;;;22.78;65.81;100540.44;1856569;77;25693;-59
2021/07/31 01:42:37;;;;;;;18.05;9.13;;;;;;;22.80;65.83;100538.84;1824135;77;27010;-59
2021/07/31 01:45:06;;;;;;;17.23;8.50;;;;;;;22.81;65.89;100541.38;1823069;78;25741;-59
2021/07/31 01:47:35;;;;;;;15.88;8.40;;;;;;;22.85;65.99;100539.53;1842100;77;27451;-59
2021/07/31 01:50:03;;;;;;;14.75;8.13;;;;;;;22.87;65.96;100541.53;1845382;77;25698;-59
2021/07/31 01:52:31;;;;;;;25.00;8.48;;;;;;;22.91;65.82;100538.63;1810136;78;25665;-59
2021/07/31 01:54:58;;;;;;;23.27;14.07;;;;;;;22.93;65.94;100542.86;1809945;79;25789;-59
2021/07/31 01:57:26;;;;;;;17.45;8.38;;;;;;;22.95;65.81;100538.50;1810056;79;25767;-60
2021/07/31 02:00:12;;;;;;;25.15;8.70;;;;;;;22.90;65.82;100544.66;1810144;78;28203;-60
2021/07/31 02:02:41;;;;;;;14.83;8.88;;;;;;;22.89;65.61;100541.61;1809920;78;25819;-60
2021/07/31 02:05:11;;;;;;;21.23;7.95;;;;;;;22.88;65.68;100541.84;1815122;77;25711;-60
2021/07/31 02:07:43;;;;;;;19.80;8.80;;;;;;;22.89;65.70;100538.04;1836167;77;26784;-59
2021/07/31 02:10:11;;;;;;;17.70;8.30;;;;;;;22.89;65.80;100539.41;1815238;77;25724;-60
2021/07/31 02:12:38;;;;;;;20.45;8.23;;;;;;;22.89;65.72;100535.30;1843213;77;27437;-59
2021/07/31 02:15:08;;;;;;;14.07;8.70;;;;;;;22.90;65.63;100535.61;1837265;77;25757;-60
2021/07/31 02:17:35;;;;;;;16.17;8.58;;;;;;;22.90;65.63;100535.61;1828992;77;25743;-60
2021/07/31 02:20:05;;;;;;;16.32;9.53;;;;;;;22.86;65.73;100537.11;1833328;77;25746;-59
2021/07/31 02:22:40;;;;;;;17.00;7.72;;;;;;;22.79;65.31;100534.41;1810009;79;25857;-59
2021/07/31 02:25:18;;;;;;;16.85;8.75;;;;;;;22.69;65.64;100535.44;1753288;81;27448;-60
2021/07/31 02:27:58;;;;;;;17.05;8.38;;;;;;;22.58;65.59;100541.97;1805783;79;26355;-60
2021/07/31 02:30:27;;;;;;;20.02;8.55;;;;;;;22.54;65.91;100541.26;1811283;77;25694;-59
2021/07/31 02:32:55;;;;;;;20.15;8.90;;;;;;;22.50;65.82;100546.34;1811686;77;26292;-59
2021/07/31 02:35:24;;;;;;;17.85;8.53;;;;;;;22.44;65.86;100538.98;1819809;77;25709;-59
2021/07/31 02:38:09;;;;;;;16.87;8.15;;;;;;;22.41;65.98;100544.93;1819665;78;27413;-60
2021/07/31 02:40:37;;;;;;;11.70;8.28;;;;;;;22.38;66.34;100546.70;1819531;78;25920;-59
2021/07/31 02:43:05;;;;;;;13.40;7.60;;;;;;;22.33;66.62;100538.59;1819705;78;25749;-60
2021/07/31 02:45:32;;;;;;;15.43;8.50;;;;;;;22.31;67.25;100548.95;1820023;78;25673;-60
2021/07/31 02:48:02;;;;;;;11.95;8.25;;;;;;;22.26;67.36;100551.50;1825096;77;25693;-60
2021/07/31 02:50:32;;;;;;;17.55;8.23;;;;;;;22.25;67.46;100548.98;1831241;77;28133;-60
2021/07/31 02:53:17;;;;;;;17.95;7.55;;;;;;;22.26;67.57;100550.67;1819992;77;25992;-61
2021/07/31 02:55:47;;;;;;;17.40;8.45;;;;;;;22.25;67.68;100552.55;1820141;77;25627;-60
2021/07/31 02:58:15;;;;;;;17.30;8.03;;;;;;;22.26;67.54;100555.61;1820042;78;25851;-60
2021/07/31 03:00:42;;;;;;;18.52;7.67;;;;;;;22.27;67.43;100561.40;1820354;78;25956;-59
2021/07/31 03:03:10;;;;;;;11.83;7.35;;;;;;;22.28;67.59;100558.98;1835271;77;27458;-59
2021/07/31 03:05:38;;;;;;;15.75;7.80;;;;;;;22.28;67.80;100564.97;1854645;76;25760;-59
2021/07/31 03:08:06;;;;;;;13.93;7.95;;;;;;;22.31;67.83;100564.54;1854141;77;25860;-59
2021/07/31 03:10:34;;;;;;;13.53;7.10;;;;;;;22.30;67.85;100563.72;1854462;77;26541;-59
2021/07/31 03:13:02;;;;;;;15.25;7.47;;;;;;;22.29;67.60;100566.66;1854494;77;25685;-60
2021/07/31 03:15:30;;;;;;;20.20;6.92;;;;;;;22.26;68.18;100572.05;1838708;77;28534;-59
2021/07/31 03:17:57;;;;;;;9.60;7.40;;;;;;;22.22;67.96;100577.67;1842513;77;25680;-59
2021/07/31 03:20:24;;;;;;;15.43;7.15;;;;;;;22.18;67.87;100570.42;1854677;77;25791;-59
2021/07/31 03:22:53;;;;;;;16.32;7.05;;;;;;;22.13;68.18;100570.22;1853888;77;26447;-59
2021/07/31 03:25:20;;;;;;;13.05;7.35;;;;;;;22.07;68.69;100564.76;1854753;77;25752;-59
2021/07/31 03:27:47;;;;;;;10.28;6.60;;;;;;;22.03;68.43;100569.33;1854476;77;27514;-59
2021/07/31 03:30:19;;;;;;;14.93;7.60;;;;;;;22.04;68.52;100571.01;1854011;77;25861;-59
2021/07/31 03:32:53;;;;;;;13.38;7.08;;;;;;;22.09;68.52;100571.73;1853884;76;25709;-58
2021/07/31 03:35:20;;;;;;;19.82;7.62;;;;;;;22.10;68.50;100570.64;1854476;77;26617;-59
2021/07/31 03:37:49;;;;;;;17.80;7.20;;;;;;;22.11;68.50;100568.76;1815834;77;25920;-59
2021/07/31 03:40:18;;;;;;;11.05;6.72;;;;;;;22.15;68.54;100572.73;1854672;76;27426;-60
2021/07/31 03:42:45;;;;;;;20.72;7.30;;;;;;;22.16;68.58;100568.93;1854212;77;25791;-60
2021/07/31 03:45:12;;;;;;;18.17;7.08;;;;;;;22.17;68.74;100571.47;1854353;77;26616;-60
2021/07/31 03:47:40;;;;;;;14.13;6.78;;;;;;;22.18;69.12;100578.64;1854375;77;25781;-60
2021/07/31 03:50:09;;;;;;;21.27;7.47;;;;;;;22.15;69.71;100579.06;1852956;77;25819;-59
2021/07/31 03:52:38;;;;;;;18.37;7.30;;;;;;;22.11;69.03;100580.55;1851532;77;27667;-60
2021/07/31 03:55:07;;;;;;;17.92;8.68;;;;;;;22.11;68.84;100581.91;1851486;77;25848;-59
2021/07/31 03:57:35;;;;;;;13.13;7.45;;;;;;;22.16;68.95;100583.48;1851746;77;25753;-59
2021/07/31 04:00:05;;;;;;;16.12;7.12;;;;;;;22.23;68.88;100589.45;1852028;76;26410;-60
2021/07/31 04:02:34;;;;;;;24.30;8.80;;;;;;;22.29;68.86;100589.43;1839571;76;25432;-60
2021/07/31 04:05:02;;;;;;;18.48;8.28;;;;;;;22.34;68.66;100590.14;1863828;76;28155;-59
2021/07/31 04:07:30;;;;;;;12.25;7.22;;;;;;;22.34;68.94;100591.52;1864321;76;25950;-59
2021/07/31 04:10:06;;;;;;;24.70;11.95;;;;;;;22.33;68.66;100600.25;1830723;76;25555;-59
2021/07/31 04:12:51;;;;;;;21.35;11.28;;;;;;;22.35;68.71;100605.53;1865787;76;26472;-59
2021/07/31 04:15:20;;;;;;;23.02;12.33;;;;;;;22.38;68.60;100609.19;1861565;76;25860;-59
2021/07/31 04:17:48;;;;;;;23.35;14.20;;;;;;;22.45;68.86;100610.05;1865934;76;28205;-59
2021/07/31 04:20:17;;;;;;;28.77;15.05;;;;;;;22.50;68.62;100608.02;1865066;76;25708;-59
2021/07/31 04:22:44;;;;;;;24.72;16.25;;;;;;;22.55;68.39;100610.10;1831705;77;25674;-60
2021/07/31 04:25:13;;;;;;;37.38;18.98;;;;;;;22.49;68.32;100611.81;1831902;77;25801;-60
2021/07/31 04:27:40;;;;;;;38.42;21.02;;;;;;;22.49;68.31;100614.56;1831908;77;25745;-60
2021/07/31 04:30:08;;;;;;;35.43;19.82;;;;;;;22.54;68.37;100620.75;1852464;76;27462;-61
2021/07/31 04:32:35;;;;;;;34.03;15.63;;;;;;;22.60;68.36;100617.13;1865650;76;25678;-60
2021/07/31 04:35:03;;;;;;;26.70;13.68;;;;;;;22.63;68.35;100618.89;1865873;76;25762;-60
2021/07/31 04:37:30;;;;;;;22.70;13.80;;;;;;;22.60;68.28;100617.13;1865860;76;25826;-60
2021/07/31 04:39:58;;;;;;;25.15;12.70;;;;;;;22.67;68.38;100628.88;1865811;76;26239;-61
2021/07/31 04:42:25;;;;;;;30.85;13.40;;;;;;;22.76;68.26;100628.94;1865770;76;28134;-61
2021/07/31 04:44:52;;;;;;;34.73;14.18;;;;;;;22.86;67.95;100628.44;1839718;76;26029;-60
2021/07/31 04:47:18;;;;;;;28.47;13.48;;;;;;;22.94;67.77;100630.08;1825281;78;25702;-60
2021/07/31 04:49:45;;;;;;;21.60;12.47;;;;;;;22.93;67.49;100627.88;1825421;78;26473;-60
2021/07/31 04:52:12;;;;;;;24.87;13.53;;;;;;;22.97;67.62;100628.27;1825641;76;26386;-61
2021/07/31 04:54:41;;;;;;;28.45;14.38;;;;;;;22.95;67.16;100629.02;1832703;76;27442;-61
2021/07/31 04:57:09;;;;;;;28.30;14.47;;;;;;;22.90;67.20;100622.00;1831447;78;25946;-60
2021/07/31 04:59:36;;;;;;;31.57;13.45;;;;;;;22.86;67.17;100628.44;1828960;76;25523;-60
2021/07/31 05:02:04;;;;;;;25.02;13.65;;;;;;;22.85;67.43;100629.52;1825588;78;26456;-60
2021/07/31 05:04:31;;;;;;;27.77;14.53;;;;;;;22.90;67.37;100627.48;1826179;78;25747;-60
2021/07/31 05:06:59;;;;;;;28.75;13.58;;;;;;;22.93;67.31;100625.14;1825360;78;27470;-60
2021/07/31 05:09:26;;;;;;;20.77;12.80;;;;;;;23.01;67.55;100625.92;1825790;78;25720;-60
2021/07/31 05:11:53;;;;;;;24.12;13.45;;;;;;;23.06;67.13;100626.08;1825617;78;25702;-60
2021/07/31 05:14:21;;;;;;;20.05;12.33;;;;;;;23.09;67.14;100625.65;1851126;76;27061;-60
2021/07/31 05:16:47;;;;;;;30.50;14.13;;;;;;;23.07;67.06;100625.02;1865841;76;25772;-60
2021/07/31 05:19:14;;;;;;;27.13;12.23;;;;;;;23.09;66.88;100620.98;1866157;76;27500;-60
2021/07/31 05:21:41;;;;;;;24.40;12.53;;;;;;;23.12;67.07;100621.92;1845353;76;25761;-61
2021/07/31 05:24:08;;;;;;;33.75;12.73;;;;;;;23.18;66.93;100622.97;1832582;77;25768;-60
2021/07/31 05:26:40;;;;;;;28.42;13.08;;;;;;;23.28;66.84;100631.55;1832026;77;26117;-60
2021/07/31 05:29:09;;;;;;;23.90;13.85;;;;;;;23.36;66.51;100627.66;1854042;76;25698;-60
2021/07/31 05:31:36;;;;;;;23.18;13.53;;;;;;;23.44;66.47;100631.48;1865308;76;27475;-60
2021/07/31 05:34:03;;;;;;;33.08;14.87;;;;;;;23.49;66.18;100627.23;1866233;76;25605;-59
2021/07/31 05:36:34;;;;;;;28.15;14.90;;;;;;;23.56;66.03;100626.63;1865891;76;25836;-60
2021/07/31 05:38:59;;;;;;;31.73;14.75;;;;;;;23.59;65.87;100622.08;1865892;76;26653;-60
2021/07/31 05:41:26;;;;;;;29.10;12.15;;;;;;;23.67;65.64;100626.41;1863997;76;25917;-60
2021/07/31 05:43:53;;;;;;;22.15;12.40;;;;;;;23.74;65.50;100621.72;1866243;76;27429;-60
2021/07/31 05:46:20;;;;;;;23.62;11.73;;;;;;;23.82;65.15;100618.66;1865789;76;25697;-59
2021/07/31 05:48:49;;;;;;;19.30;10.88;;;;;;;23.86;64.35;100619.05;1865749;76;25678;-60
2021/07/31 05:51:17;;;;;;;19.37;10.65;;;;;;;23.89;63.76;100618.59;1858877;76;25778;-60
2021/07/31 05:53:44;;;;;;;16.45;10.63;;;;;;;23.85;63.42;100619.56;1856827;77;25664;-60
2021/07/31 05:56:11;;;;;;;12.82;9.55;;;;;;;23.86;63.05;100617.67;1823567;77;28328;-60
2021/07/31 05:58:39;;;;;;;19.40;9.78;;;;;;;23.89;62.84;100618.59;1816329;79;26469;-60
2021/07/31 06:01:07;;;;;;;15.53;9.58;;;;;;;23.91;62.84;100616.44;1816509;79;25718;-60
2021/07/31 06:03:36;;;;;;;18.48;10.13;;;;;;;23.94;62.79;100616.54;1816698;79;25747;-60
2021/07/31 06:06:04;;;;;;;29.85;10.93;;;;;;;23.98;63.04;100616.41;1816210;79;25778;-60
2021/07/31 06:08:31;;;;;;;14.05;9.20;;;;;;;24.01;63.10;100617.33;1832065;77;27419;-60
2021/07/31 06:11:04;;;;;;;20.85;8.48;;;;;;;24.03;62.76;100618.77;1856506;77;25669;-60
2021/07/31 06:13:32;;;;;;;17.30;9.00;;;;;;;23.99;62.25;100621.66;1857125;77;25689;-60
2021/07/31 06:15:59;;;;;;;15.80;9.03;;;;;;;24.00;62.53;100617.84;1856584;77;25786;-60
2021/07/31 06:18:26;;;;;;;20.82;9.80;;;;;;;24.03;62.45;100620.66;1856970;77;25768;-60
2021/07/31 06:20:53;;;;;;;21.52;10.80;;;;;;;24.10;62.71;100615.09;1846745;77;27814;-61
2021/07/31 06:23:21;;;;;;;18.25;8.30;;;;;;;24.15;62.67;100624.33;1831864;77;26575;-60
2021/07/31 06:25:48;;;;;;;27.22;9.43;;;;;;;24.22;62.40;100622.33;1838026;77;25674;-60
2021/07/31 06:28:15;;;;;;;32.95;9.88;;;;;;;24.29;62.18;100619.50;1856042;77;25760;-60
2021/07/31 06:30:44;;;;;;;19.12;8.50;;;;;;;24.37;62.28;100614.23;1853248;77;25709;-60
2021/07/31 06:33:15;;;;;;;22.05;7.83;;;;;;;24.49;61.81;100618.41;1830419;77;28287;-60
2021/07/31 06:35:42;;;;;;;17.60;8.48;;;;;;;24.56;61.49;100610.07;1816544;79;25741;-60
2021/07/31 06:38:09;;;;;;;16.82;8.73;;;;;;;24.63;61.56;100610.80;1816054;79;25736;-60
2021/07/31 06:40:36;;;;;;;17.20;9.30;;;;;;;24.72;61.53;100614.94;1816530;79;26665;-60
2021/07/31 06:43:08;;;;;;;26.15;9.90;;;;;;;24.78;61.45;100609.86;1815985;77;25745;-62
2021/07/31 06:45:35;;;;;;;19.23;10.00;;;;;;;24.84;61.43;100613.59;1850003;77;27558;-61
2021/07/31 06:48:04;;;;;;;22.60;10.18;;;;;;;24.90;61.29;100607.69;1856841;77;25753;-60
2021/07/31 06:50:31;;;;;;;16.15;9.43;;;;;;;24.96;61.06;100606.73;1852054;77;25642;-60
2021/07/31 06:52:58;;;;;;;18.45;10.65;;;;;;;25.06;60.66;100603.38;1843146;77;25788;-60
2021/07/31 06:55:25;;;;;;;18.17;10.78;;;;;;;25.09;60.78;100605.16;1843147;77;25500;-60
2021/07/31 06:57:53;;;;;;;16.07;10.00;;;;;;;25.14;60.53;100605.81;1843311;77;27336;-60
2021/07/31 07:00:21;;;;;;;18.90;8.98;;;;;;;25.20;60.40;100608.98;1826032;77;25768;-59
2021/07/31 07:02:48;;;;;;;18.52;9.60;;;;;;;25.25;60.39;100606.34;1822781;78;25532;-60
2021/07/31 07:05:15;;;;;;;18.60;8.70;;;;;;;25.32;60.14;100611.74;1822599;78;26512;-60
2021/07/31 07:07:42;;;;;;;16.45;9.18;;;;;;;25.36;59.79;100607.97;1822699;78;25692;-60
2021/07/31 07:10:11;;;;;;;14.98;8.75;;;;;;;25.42;59.88;100608.41;1822924;77;27353;-60
2021/07/31 07:12:38;;;;;;;24.95;9.65;;;;;;;25.47;59.76;100605.24;1823617;77;25611;-60
2021/07/31 07:15:07;;;;;;;16.55;8.60;;;;;;;25.56;59.71;100600.75;1816981;77;25932;-59
2021/07/31 07:17:34;;;;;;;14.68;8.20;;;;;;;25.65;59.65;100597.10;1826707;77;25778;-59
2021/07/31 07:20:01;;;;;;;21.12;9.00;;;;;;;25.75;60.13;100590.45;1843324;77;26006;-61
2021/07/31 07:22:28;;;;;;;17.57;7.85;;;;;;;25.85;59.79;100593.95;1829979;77;28259;-59
2021/07/31 07:24:55;;;;;;;11.15;7.55;;;;;;;25.95;59.61;100591.41;1829189;77;25682;-61
2021/07/31 07:27:22;;;;;;;10.68;7.70;;;;;;;26.05;59.49;100590.78;1837912;77;25683;-59
2021/07/31 07:29:50;;;;;;;27.00;8.25;;;;;;;26.15;58.55;100601.23;1833889;77;25683;-59
2021/07/31 07:32:17;;;;;;;13.88;7.62;;;;;;;26.23;57.85;100588.43;1842963;77;25738;-60
2021/07/31 07:34:44;;;;;;;14.50;7.47;;;;;;;26.30;58.11;100592.43;1843436;77;27341;-60
2021/07/31 07:37:11;;;;;;;18.92;8.15;;;;;;;26.36;57.91;100592.26;1842879;77;25760;-58
2021/07/31 07:39:38;;;;;;;18.27;7.87;;;;;;;26.45;57.43;100594.66;1843219;77;25682;-60
2021/07/31 07:42:06;;;;;;;19.77;7.97;;;;;;;26.53;57.21;100601.15;1822548;78;25729;-60
2021/07/31 07:44:34;;;;;;;19.85;8.85;;;;;;;26.58;57.15;100597.65;1822646;78;25787;-60
2021/07/31 07:47:01;;;;;;;16.17;7.80;;;;;;;26.64;56.47;100595.27;1822563;78;27513;-60
2021/07/31 07:49:28;;;;;;;20.05;8.05;;;;;;;26.68;56.70;100597.80;1822667;78;25712;-60
2021/07/31 07:51:56;;;;;;;17.27;7.83;;;;;;;26.72;56.70;100598.44;1817553;78;25742;-60
2021/07/31 07:54:23;;;;;;;11.55;7.67;;;;;;;26.79;56.77;100591.98;1816504;77;26430;-61
2021/07/31 07:56:50;;;;;;;18.40;8.10;;;;;;;26.89;56.83;100586.64;1822968;78;25967;-61
2021/07/31 07:59:17;;;;;;;13.13;7.90;;;;;;;26.99;57.05;100583.20;1822985;78;27473;-61
2021/07/31 08:01:44;;;;;;;11.73;7.03;;;;;;;27.06;56.59;100592.15;1822837;78;25729;-60
2021/07/31 08:04:11;;;;;;;15.35;7.97;;;;;;;27.12;56.16;100596.66;1822966;77;25761;-61
2021/07/31 08:06:38;;;;;;;17.70;8.85;;;;;;;27.17;55.79;100587.09;1823674;77;27025;-61
2021/07/31 08:09:05;;;;;;;18.75;7.78;;;;;;;27.22;55.44;100592.39;1822670;78;25758;-60
2021/07/31 08:11:33;;;;;;;18.50;8.65;;;;;;;27.24;55.57;100585.55;1816371;78;27445;-60
2021/07/31 08:14:01;;;;;;;16.55;8.13;;;;;;;27.28;55.67;100585.32;1815961;79;25731;-59
2021/07/31 08:16:28;;;;;;;20.37;7.80;;;;;;;27.33;55.76;100580.42;1855137;77;25766;-60
2021/07/31 08:18:55;;;;;;;15.85;7.53;;;;;;;27.43;55.42;100584.75;1856443;77;26486;-62
2021/07/31 08:21:22;;;;;;;14.38;7.75;;;;;;;27.55;55.12;100582.44;1850160;77;26402;-61
2021/07/31 08:23:49;;;;;;;15.15;7.30;;;;;;;27.68;55.09;100575.14;1856718;77;27820;-61
2021/07/31 08:26:16;;;;;;;22.65;7.85;;;;;;;27.82;54.97;100584.45;1856342;77;25661;-61
2021/07/31 08:28:44;;;;;;;32.25;15.80;;;;;;;27.94;54.54;100575.47;1856787;77;25630;-61
2021/07/31 08:31:13;;;;;;;19.92;8.03;;;;;;;28.06;54.43;100573.98;1856554;77;25822;-60
2021/07/31 08:33:40;;;;;;;15.00;7.35;;;;;;;28.16;54.08;100570.52;1856471;77;25954;-61
2021/07/31 08:36:09;;;;;;;15.98;7.00;;;;;;;28.30;54.14;100574.53;1857136;77;27843;-61
2021/07/31 08:38:36;;;;;;;15.48;6.83;;;;;;;28.44;53.80;100579.11;1856228;77;25716;-61
2021/07/31 08:41:04;;;;;;;19.80;8.35;;;;;;;28.56;53.19;100575.65;1856349;77;25715;-61
2021/07/31 08:43:32;;;;;;;18.77;8.35;;;;;;;28.63;52.92;100576.83;1856531;77;26160;-61
2021/07/31 08:46:09;;;;;;;14.18;8.00;;;;;;;28.71;52.49;100576.37;1856471;77;25728;-61
2021/07/31 08:48:36;;;;;;;13.98;6.78;;;;;;;28.84;52.51;100577.02;1856761;77;27425;-61
2021/07/31 08:51:04;;;;;;;12.63;6.97;;;;;;;28.99;51.50;100577.17;1856069;77;25705;-61
2021/07/31 08:53:31;;;;;;;17.73;6.92;;;;;;;29.15;51.63;100575.33;1855005;77;26541;-61
2021/07/31 08:56:00;;;;;;;16.87;6.40;;;;;;;29.31;51.42;100572.13;1853461;77;26174;-61
2021/07/31 08:58:28;;;;;;;23.10;7.37;;;;;;;29.48;50.83;100569.77;1856432;77;25819;-61
2021/07/31 09:00:57;;;;;;;18.35;6.97;;;;;;;29.69;50.51;100574.05;1842351;77;27475;-61
2021/07/31 09:03:24;;;;;;;14.73;6.53;;;;;;;29.88;49.89;100571.63;1816259;79;25706;-61
2021/07/31 09:05:52;;;;;;;16.80;6.97;;;;;;;30.04;48.77;100566.44;1816050;78;25807;-61
2021/07/31 09:08:19;;;;;;;21.62;6.80;;;;;;;30.19;49.04;100567.05;1816255;79;25742;-61
2021/07/31 09:10:47;;;;;;;21.70;6.90;;;;;;;30.40;48.50;100564.33;1816174;79;25785;-61
2021/07/31 09:13:17;;;;;;;26.17;7.25;;;;;;;30.62;48.44;100563.30;1816199;79;26858;-61
2021/07/31 09:15:47;;;;;;;13.90;7.42;;;;;;;30.88;47.23;100559.42;1842167;76;25941;-60
2021/07/31 09:18:33;;;;;;;15.18;6.40;;;;;;;31.09;46.58;100564.12;1856313;77;25718;-62
2021/07/31 09:21:12;;;;;;;11.93;6.42;;;;;;;31.28;46.70;100562.46;1845462;77;25802;-60
2021/07/31 09:23:49;;;;;;;13.48;5.83;;;;;;;31.51;46.00;100558.20;1821959;78;26081;-61
2021/07/31 09:26:26;;;;;;;16.77;6.60;;;;;;;31.78;45.17;100554.25;1822590;78;27475;-61
2021/07/31 09:29:09;;;;;;;18.12;6.65;;;;;;;32.10;44.58;100553.00;1822838;78;25817;-61
2021/07/31 09:31:41;;;;;;;22.75;7.08;;;;;;;32.48;43.81;100549.72;1850307;77;25443;-61
2021/07/31 09:34:09;;;;;;;14.20;5.33;;;;;;;33.03;43.62;100553.78;1855481;77;26461;-61
2021/07/31 09:36:42;;;;;;;22.02;5.60;;;;;;;33.64;41.44;100556.20;1856492;77;25773;-61
2021/07/31 09:39:11;;;;;;;14.90;4.85;;;;;;;34.14;40.26;100546.95;1856610;77;28302;-61
2021/07/31 09:41:40;;;;;;;8.35;5.28;;;;;;;34.58;39.93;100553.86;1836766;77;25791;-61
2021/07/31 09:44:17;;;;;;;9.55;5.33;;;;;;;34.83;37.65;100545.59;1822816;78;25718;-61
2021/07/31 09:46:51;;;;;;;10.40;5.08;;;;;;;35.16;38.62;100551.76;1849205;77;25787;-61
2021/07/31 09:49:22;;;;;;;12.85;5.15;;;;;;;35.57;37.19;100549.03;1816265;79;25718;-61
2021/07/31 09:51:52;;;;;;;8.13;4.83;;;;;;;35.64;36.40;100545.82;1816241;78;27424;-61
2021/07/31 09:54:21;;;;;;;7.55;4.60;;;;;;;35.74;36.13;100547.56;1824374;78;25824;-61
2021/07/31 09:56:54;;;;;;;10.65;4.83;;;;;;;35.32;35.98;100543.36;1825470;78;25788;-61
2021/07/31 09:59:23;;;;;;;8.90;4.62;;;;;;;34.90;36.54;100539.09;1832908;76;26636;-61
2021/07/31 10:02:00;;;;;;;11.95;6.00;;;;;;;34.57;37.01;100534.86;1865803;76;25712;-61
2021/07/31 10:04:27;;;;;;;9.75;4.53;;;;;;;34.84;36.80;100524.91;1866295;76;27303;-61
2021/07/31 10:06:55;;;;;;;8.58;4.83;;;;;;;35.35;36.34;100521.75;1865824;76;25747;-61
2021/07/31 10:09:23;;;;;;;15.80;5.83;;;;;;;35.68;35.76;100527.84;1865647;76;25779;-61
2021/07/31 10:11:50;;;;;;;10.40;5.40;;;;;;;35.59;35.82;100520.77;1866020;76;25798;-61
2021/07/31 10:14:17;;;;;;;15.23;5.90;;;;;;;36.22;34.81;100527.23;1865778;76;25764;-61
2021/07/31 10:16:48;;;;;;;18.77;5.00;;;;;;;36.72;34.75;100525.74;1866245;76;28135;-61
2021/07/31 10:19:15;;;;;;;11.08;4.25;;;;;;;37.29;32.21;100524.27;1865817;76;25692;-61
2021/07/31 10:21:52;;;;;;;5.10;3.77;;;;;;;37.85;31.68;100516.78;1844197;76;25720;-61
2021/07/31 10:24:20;;;;;;;9.60;3.77;;;;;;;38.60;30.58;100520.05;1830359;78;26457;-61
2021/07/31 10:27:21;;;;;;;16.57;4.60;;;;;;;39.28;28.85;100514.61;1830181;78;25724;-61
2021/07/31 10:29:56;;;;;;;9.28;4.62;;;;;;;39.73;28.84;100503.37;1831892;76;27452;-61
2021/07/31 10:32:30;;;;;;;7.05;3.80;;;;;;;40.21;27.09;100508.23;1830257;78;25821;-62
2021/07/31 10:35:05;;;;;;;4.55;2.87;;;;;;;40.55;26.28;100501.81;1830311;78;25721;-61
2021/07/31 10:37:39;;;;;;;7.12;3.55;;;;;;;40.84;25.06;100500.26;1830130;78;26710;-61
2021/07/31 10:40:31;;;;;;;5.22;2.95;;;;;;;41.31;25.07;100499.62;1830980;76;25672;-62
2021/07/31 10:43:07;;;;;;;6.08;3.47;;;;;;;41.30;23.04;100488.94;1832318;78;27441;-62
2021/07/31 10:45:35;;;;;;;7.78;3.87;;;;;;;41.31;24.22;100481.28;1831661;78;25839;-62
2021/07/31 10:48:15;;;;;;;8.45;3.87;;;;;;;41.32;23.44;100478.70;1851380;76;25936;-62
2021/07/31 10:50:42;;;;;;;5.60;3.50;;;;;;;41.73;23.15;100481.63;1846695;76;25836;-62
2021/07/31 10:53:14;;;;;;;5.00;3.60;;;;;;;41.39;23.40;100481.75;1850907;76;25723;-62
2021/07/31 10:55:48;;;;;;;7.85;3.33;;;;;;;40.53;23.62;100479.02;1856190;77;27500;-62
2021/07/31 10:58:20;;;;;;;10.00;3.87;;;;;;;39.98;25.28;100482.98;1856621;77;25716;-62
2021/07/31 11:00:54;;;;;;;12.23;3.33;;;;;;;39.32;25.63;100482.97;1856715;77;25636;-62
2021/07/31 11:03:31;;;;;;;7.22;3.77;;;;;;;38.61;26.42;100478.15;1856474;77;25909;-61
2021/07/31 11:06:01;;;;;;;7.85;3.87;;;;;;;39.23;26.69;100472.56;1823039;78;26011;-62
2021/07/31 11:08:47;;;;;;;10.75;3.60;;;;;;;40.21;26.24;100474.43;1822958;78;27464;-62
2021/07/31 11:11:22;;;;;;;8.73;3.80;;;;;;;41.12;24.68;100474.23;1822626;78;25745;-61
2021/07/31 11:13:51;;;;;;;9.78;3.40;;;;;;;42.07;24.13;100465.30;1820053;78;25766;-62
2021/07/31 11:16:23;;;;;;;6.08;3.17;;;;;;;42.71;21.77;100464.06;1852069;77;26645;-62
2021/07/31 11:18:54;;;;;;;9.78;3.52;;;;;;;43.11;21.43;100464.51;1831244;77;25682;-62
2021/07/31 11:21:26;;;;;;;4.97;3.42;;;;;;;43.45;20.91;100464.93;1841317;77;27486;-61
2021/07/31 11:24:12;;;;;;;7.65;3.65;;;;;;;43.73;20.48;100451.80;1823057;78;33326;-62
2021/07/31 11:26:54;;;;;;;7.05;3.37;;;;;;;44.14;20.32;100469.30;1823235;78;25722;-62